SANE/SDE METAR and TAF weather

Enter ICAO airport designator
Station Type Date Time Source
SANE METAR 2022/01/18 02:15 UTC NOAA

SANE 180215Z 36006KT 3000 TSRA BKN030 FEW045CB BKN100 26/24 Q1004


Station Type Date Time Source
SANE Decoded METAR 2022/01/18 02:15 UTC NOAA

Santiago Del Estero Aero., Argentina (SANE) 27-46S 064-18W 199M
Jan 17, 2022 - 09:15 PM EST / 2022.01.18 0215 UTC
Wind: from the N (360 degrees) at 7 MPH (6 KT):0
Visibility: 1 mile(s):0
Sky conditions: mostly cloudy
Weather: rain with thunder; Cumulonimbus clouds observed
Temperature: 78 F (26 C)
Dew Point: 75 F (24 C)
Relative Humidity: 88%
Pressure (altimeter): 29.65 in. Hg (1004 hPa)
ob: SANE 180215Z 36006KT 3000 TSRA BKN030 FEW045CB BKN100 26/24 Q1004
cycle: 2

Station Type Date Time Source
SANE TAF 2022/01/17 12:00 UTC NOAA

TAF SANE 171100Z 1712/1712 18010KT CAVOK TX42/1719Z TN24/1809Z
BECMG 1719/1721 16015KT 9999 BKN040 FEW050CB
BECMG 1722/1800 23020G30KT 3000 TSRA BKN030 FEW040CB
BECMG 1804/1806 18015KT 9999 BKN020

Example: see airport list